sensor_id;sensor_type;location;lat;lon;timestamp;pressure;altitude;pressure_sealevel;temperature;humidity
46007;BME280;31738;50.188;8.524;2022-12-18T00:01:18;100151.47;;;-4.70;85.94
46007;BME280;31738;50.188;8.524;2022-12-18T00:03:45;100162.63;;;-4.68;86.22
46007;BME280;31738;50.188;8.524;2022-12-18T00:06:13;100150.38;;;-4.68;86.01
46007;BME280;31738;50.188;8.524;2022-12-18T00:08:40;100149.28;;;-4.65;85.94
46007;BME280;31738;50.188;8.524;2022-12-18T00:11:10;100148.28;;;-4.64;86.12
46007;BME280;31738;50.188;8.524;2022-12-18T00:13:38;100146.38;;;-4.62;86.08
46007;BME280;31738;50.188;8.524;2022-12-18T00:16:09;100146.50;;;-4.64;86.08
46007;BME280;31738;50.188;8.524;2022-12-18T00:18:35;100145.00;;;-4.66;86.06
46007;BME280;31738;50.188;8.524;2022-12-18T00:21:02;100146.66;;;-4.65;86.04
46007;BME280;31738;50.188;8.524;2022-12-18T00:23:29;100146.66;;;-4.65;86.06
46007;BME280;31738;50.188;8.524;2022-12-18T00:25:58;100137.03;;;-4.65;86.11
46007;BME280;31738;50.188;8.524;2022-12-18T00:28:24;100131.78;;;-4.65;86.19
46007;BME280;31738;50.188;8.524;2022-12-18T00:30:49;100136.19;;;-4.65;86.28
46007;BME280;31738;50.188;8.524;2022-12-18T00:33:17;100141.13;;;-4.62;86.06
46007;BME280;31738;50.188;8.524;2022-12-18T00:35:43;100144.72;;;-4.63;85.88
46007;BME280;31738;50.188;8.524;2022-12-18T00:38:09;100141.13;;;-4.62;86.22
46007;BME280;31738;50.188;8.524;2022-12-18T00:40:35;100132.59;;;-4.64;86.26
46007;BME280;31738;50.188;8.524;2022-12-18T00:43:00;100137.03;;;-4.65;86.51
46007;BME280;31738;50.188;8.524;2022-12-18T00:45:28;100138.66;;;-4.64;86.26
46007;BME280;31738;50.188;8.524;2022-12-18T00:47:54;100142.25;;;-4.65;86.32
46007;BME280;31738;50.188;8.524;2022-12-18T00:50:21;100148.28;;;-4.64;86.15
46007;BME280;31738;50.188;8.524;2022-12-18T00:52:47;100149.81;;;-4.62;86.39
46007;BME280;31738;50.188;8.524;2022-12-18T00:55:13;100154.91;;;-4.60;86.40
46007;BME280;31738;50.188;8.524;2022-12-18T00:57:39;100153.94;;;-4.59;86.25
46007;BME280;31738;50.188;8.524;2022-12-18T01:00:06;100150.63;;;-4.61;86.34
46007;BME280;31738;50.188;8.524;2022-12-18T01:02:34;100149.81;;;-4.62;86.22
46007;BME280;31738;50.188;8.524;2022-12-18T01:04:59;100156.84;;;-4.62;86.36
46007;BME280;31738;50.188;8.524;2022-12-18T01:07:24;100156.00;;;-4.63;86.44
46007;BME280;31738;50.188;8.524;2022-12-18T01:09:50;100150.75;;;-4.63;86.09
46007;BME280;31738;50.188;8.524;2022-12-18T01:12:15;100153.25;;;-4.61;86.43
46007;BME280;31738;50.188;8.524;2022-12-18T01:14:41;100149.38;;;-4.57;86.21
46007;BME280;31738;50.188;8.524;2022-12-18T01:17:06;100153.94;;;-4.59;86.23
46007;BME280;31738;50.188;8.524;2022-12-18T01:19:32;100160.16;;;-4.60;86.22
46007;BME280;31738;50.188;8.524;2022-12-18T01:21:58;100167.03;;;-4.59;86.27
46007;BME280;31738;50.188;8.524;2022-12-18T01:24:23;100171.31;;;-4.58;86.42
46007;BME280;31738;50.188;8.524;2022-12-18T01:26:49;100173.09;;;-4.59;86.15
46007;BME280;31738;50.188;8.524;2022-12-18T01:29:14;100173.91;;;-4.58;86.35
46007;BME280;31738;50.188;8.524;2022-12-18T01:31:41;100168.69;;;-4.58;86.39
46007;BME280;31738;50.188;8.524;2022-12-18T01:34:06;100168.69;;;-4.58;86.67
46007;BME280;31738;50.188;8.524;2022-12-18T01:36:35;100183.41;;;-4.57;86.55
46007;BME280;31738;50.188;8.524;2022-12-18T01:39:06;100187.81;;;-4.58;86.38
46007;BME280;31738;50.188;8.524;2022-12-18T01:41:36;100190.44;;;-4.58;86.24
46007;BME280;31738;50.188;8.524;2022-12-18T01:47:48;100184.13;;;-4.65;86.17
46007;BME280;31738;50.188;8.524;2022-12-18T01:50:19;100179.41;;;-4.61;86.54
46007;BME280;31738;50.188;8.524;2022-12-18T01:52:50;100178.31;;;-4.59;86.32
46007;BME280;31738;50.188;8.524;2022-12-18T01:55:19;100179.81;;;-4.56;86.44
46007;BME280;31738;50.188;8.524;2022-12-18T01:57:46;100168.41;;;-4.55;86.64
46007;BME280;31738;50.188;8.524;2022-12-18T02:00:16;100183.00;;;-4.53;86.63
46007;BME280;31738;50.188;8.524;2022-12-18T02:02:44;100172.38;;;-4.51;86.63
46007;BME280;31738;50.188;8.524;2022-12-18T02:05:12;100171.41;;;-4.50;86.47
46007;BME280;31738;50.188;8.524;2022-12-18T02:08:03;100169.06;;;-4.53;86.23
46007;BME280;31738;50.188;8.524;2022-12-18T02:10:42;100159.56;;;-4.54;86.27
46007;BME280;31738;50.188;8.524;2022-12-18T02:13:20;100157.94;;;-4.55;86.58
46007;BME280;31738;50.188;8.524;2022-12-18T02:16:10;100166.44;;;-4.53;86.55
46007;BME280;31738;50.188;8.524;2022-12-18T02:18:45;100168.41;;;-4.55;86.46
46007;BME280;31738;50.188;8.524;2022-12-18T02:26:56;100158.22;;;-4.58;86.75
46007;BME280;31738;50.188;8.524;2022-12-18T02:29:38;100160.56;;;-4.55;86.61
46007;BME280;31738;50.188;8.524;2022-12-18T02:32:15;100138.09;;;-4.58;86.33
46007;BME280;31738;50.188;8.524;2022-12-18T02:34:46;100147.75;;;-4.58;86.62
46007;BME280;31738;50.188;8.524;2022-12-18T02:37:16;100150.09;;;-4.55;86.83
46007;BME280;31738;50.188;8.524;2022-12-18T02:39:46;100146.50;;;-4.54;86.64
46007;BME280;31738;50.188;8.524;2022-12-18T02:42:14;100147.84;;;-4.50;86.92
46007;BME280;31738;50.188;8.524;2022-12-18T02:44:43;100165.88;;;-4.47;86.65
46007;BME280;31738;50.188;8.524;2022-12-18T02:47:11;100163.94;;;-4.45;86.91
46007;BME280;31738;50.188;8.524;2022-12-18T02:49:49;100171.13;;;-4.47;86.74
46007;BME280;31738;50.188;8.524;2022-12-18T02:52:28;100161.47;;;-4.47;86.94
46007;BME280;31738;50.188;8.524;2022-12-18T02:55:06;100157.06;;;-4.46;86.79
46007;BME280;31738;50.188;8.524;2022-12-18T02:57:49;100150.47;;;-4.50;86.97
46007;BME280;31738;50.188;8.524;2022-12-18T03:00:37;100142.47;;;-4.49;86.95
46007;BME280;31738;50.188;8.524;2022-12-18T03:03:18;100155.69;;;-4.50;86.97
46007;BME280;31738;50.188;8.524;2022-12-18T03:06:01;100164.53;;;-4.51;86.85
46007;BME280;31738;50.188;8.524;2022-12-18T03:08:37;100163.41;;;-4.49;86.82
46007;BME280;31738;50.188;8.524;2022-12-18T03:11:06;100162.31;;;-4.46;86.94
46007;BME280;31738;50.188;8.524;2022-12-18T03:16:03;100161.19;;;-4.44;87.10
46007;BME280;31738;50.188;8.524;2022-12-18T03:18:37;100164.78;;;-4.45;86.83
46007;BME280;31738;50.188;8.524;2022-12-18T03:21:05;100161.03;;;-4.42;87.07
46007;BME280;31738;50.188;8.524;2022-12-18T03:23:46;100158.72;;;-4.45;87.01
46007;BME280;31738;50.188;8.524;2022-12-18T03:26:16;100158.44;;;-4.42;87.14
46007;BME280;31738;50.188;8.524;2022-12-18T03:28:51;100155.25;;;-4.46;86.91
46007;BME280;31738;50.188;8.524;2022-12-18T03:31:21;100153.47;;;-4.45;87.14
46007;BME280;31738;50.188;8.524;2022-12-18T03:34:01;100161.19;;;-4.44;87.03
46007;BME280;31738;50.188;8.524;2022-12-18T03:36:37;100146.03;;;-4.40;87.08
46007;BME280;31738;50.188;8.524;2022-12-18T03:39:03;100147.97;;;-4.42;86.89
46007;BME280;31738;50.188;8.524;2022-12-18T03:41:47;100154.31;;;-4.45;87.01
46007;BME280;31738;50.188;8.524;2022-12-18T03:47:16;100145.22;;;-4.50;86.95
46007;BME280;31738;50.188;8.524;2022-12-18T03:49:59;100155.41;;;-4.47;87.21
46007;BME280;31738;50.188;8.524;2022-12-18T03:55:12;100150.16;;;-4.47;87.19
46007;BME280;31738;50.188;8.524;2022-12-18T03:57:42;100149.88;;;-4.44;87.22
46007;BME280;31738;50.188;8.524;2022-12-18T04:00:11;100152.91;;;-4.39;87.05
46007;BME280;31738;50.188;8.524;2022-12-18T04:02:54;100149.75;;;-4.43;87.10
46007;BME280;31738;50.188;8.524;2022-12-18T04:05:28;100151.56;;;-4.43;87.31
46007;BME280;31738;50.188;8.524;2022-12-18T04:07:54;100150.72;;;-4.44;87.23
46007;BME280;31738;50.188;8.524;2022-12-18T04:10:21;100158.28;;;-4.41;87.45
46007;BME280;31738;50.188;8.524;2022-12-18T04:12:47;100148.66;;;-4.40;87.31
46007;BME280;31738;50.188;8.524;2022-12-18T04:15:14;100141.75;;;-4.41;87.13
46007;BME280;31738;50.188;8.524;2022-12-18T04:17:47;100146.31;;;-4.43;87.18
46007;BME280;31738;50.188;8.524;2022-12-18T04:20:14;100147.66;;;-4.39;87.39
46007;BME280;31738;50.188;8.524;2022-12-18T04:22:42;100139.97;;;-4.41;87.23
46007;BME280;31738;50.188;8.524;2022-12-18T04:25:08;100138.31;;;-4.42;87.32
46007;BME280;31738;50.188;8.524;2022-12-18T04:27:37;100143.56;;;-4.42;87.18
46007;BME280;31738;50.188;8.524;2022-12-18T04:30:05;100139.41;;;-4.44;87.16
46007;BME280;31738;50.188;8.524;2022-12-18T04:32:33;100144.66;;;-4.44;87.13
46007;BME280;31738;50.188;8.524;2022-12-18T04:34:59;100144.66;;;-4.44;87.12
46007;BME280;31738;50.188;8.524;2022-12-18T04:37:25;100144.66;;;-4.44;87.38
46007;BME280;31738;50.188;8.524;2022-12-18T04:39:50;100136.13;;;-4.46;86.92
46007;BME280;31738;50.188;8.524;2022-12-18T04:42:23;100139.56;;;-4.46;87.21
46007;BME280;31738;50.188;8.524;2022-12-18T04:44:49;100137.78;;;-4.45;87.22
46007;BME280;31738;50.188;8.524;2022-12-18T04:47:14;100141.38;;;-4.46;87.13
46007;BME280;31738;50.188;8.524;2022-12-18T04:49:40;100145.78;;;-4.47;87.41
46007;BME280;31738;50.188;8.524;2022-12-18T04:52:05;100143.69;;;-4.43;87.78
46007;BME280;31738;50.188;8.524;2022-12-18T04:54:31;100140.78;;;-4.40;87.70
46007;BME280;31738;50.188;8.524;2022-12-18T04:56:56;100141.84;;;-4.33;87.40
46007;BME280;31738;50.188;8.524;2022-12-18T04:59:21;100132.75;;;-4.29;87.33
46007;BME280;31738;50.188;8.524;2022-12-18T05:01:47;100134.41;;;-4.28;87.27
46007;BME280;31738;50.188;8.524;2022-12-18T05:04:12;100137.84;;;-4.28;87.39
46007;BME280;31738;50.188;8.524;2022-12-18T05:06:38;100138.00;;;-4.29;87.42
46007;BME280;31738;50.188;8.524;2022-12-18T05:09:04;100150.41;;;-4.31;87.43
46007;BME280;31738;50.188;8.524;2022-12-18T05:11:29;100151.22;;;-4.31;87.55
46007;BME280;31738;50.188;8.524;2022-12-18T05:13:54;100150.09;;;-4.28;87.43
46007;BME280;31738;50.188;8.524;2022-12-18T05:16:21;100154.91;;;-4.24;87.49
46007;BME280;31738;50.188;8.524;2022-12-18T05:18:47;100156.41;;;-4.21;87.79
46007;BME280;31738;50.188;8.524;2022-12-18T05:21:12;100163.31;;;-4.20;87.66
46007;BME280;31738;50.188;8.524;2022-12-18T05:23:38;100154.47;;;-4.19;87.47
46007;BME280;31738;50.188;8.524;2022-12-18T05:26:05;100161.22;;;-4.17;87.38
46007;BME280;31738;50.188;8.524;2022-12-18T05:28:32;100153.50;;;-4.18;87.56
46007;BME280;31738;50.188;8.524;2022-12-18T05:31:00;100154.47;;;-4.19;87.57
46007;BME280;31738;50.188;8.524;2022-12-18T05:33:29;100159.44;;;-4.16;87.68
46007;BME280;31738;50.188;8.524;2022-12-18T05:36:00;100164.66;;;-4.16;87.46
46007;BME280;31738;50.188;8.524;2022-12-18T05:38:27;100153.06;;;-4.14;87.29
46007;BME280;31738;50.188;8.524;2022-12-18T05:40:53;100147.03;;;-4.14;87.61
46007;BME280;31738;50.188;8.524;2022-12-18T05:43:20;100143.41;;;-4.13;87.58
46007;BME280;31738;50.188;8.524;2022-12-18T05:45:50;100147.69;;;-4.12;87.40
46007;BME280;31738;50.188;8.524;2022-12-18T05:48:16;100133.78;;;-4.13;87.46
46007;BME280;31738;50.188;8.524;2022-12-18T05:50:43;100145.75;;;-4.10;87.46
46007;BME280;31738;50.188;8.524;2022-12-18T05:53:10;100144.91;;;-4.11;87.44
46007;BME280;31738;50.188;8.524;2022-12-18T05:55:38;100144.63;;;-4.08;87.89
46007;BME280;31738;50.188;8.524;2022-12-18T05:58:05;100138.44;;;-4.07;87.46
46007;BME280;31738;50.188;8.524;2022-12-18T06:00:32;100143.38;;;-4.04;87.74
46007;BME280;31738;50.188;8.524;2022-12-18T06:03:00;100142.25;;;-4.01;87.81
46007;BME280;31738;50.188;8.524;2022-12-18T06:05:26;100148.19;;;-3.99;87.83
46007;BME280;31738;50.188;8.524;2022-12-18T06:07:52;100135.38;;;-4.02;87.61
46007;BME280;31738;50.188;8.524;2022-12-18T06:10:20;100153.84;;;-4.04;87.74
46007;BME280;31738;50.188;8.524;2022-12-18T06:12:46;100149.31;;;-4.02;87.67
46007;BME280;31738;50.188;8.524;2022-12-18T06:15:11;100153.56;;;-4.01;87.57
46007;BME280;31738;50.188;8.524;2022-12-18T06:17:36;100148.19;;;-3.99;87.75
46007;BME280;31738;50.188;8.524;2022-12-18T06:20:03;100162.91;;;-3.98;87.87
46007;BME280;31738;50.188;8.524;2022-12-18T06:22:31;100154.09;;;-3.97;88.12
46007;BME280;31738;50.188;8.524;2022-12-18T06:24:57;100166.22;;;-3.96;87.59
46007;BME280;31738;50.188;8.524;2022-12-18T06:27:22;100159.34;;;-3.97;87.73
46007;BME280;31738;50.188;8.524;2022-12-18T06:29:48;100168.16;;;-3.98;87.82
46007;BME280;31738;50.188;8.524;2022-12-18T06:32:13;100167.34;;;-3.99;87.81
46007;BME280;31738;50.188;8.524;2022-12-18T06:34:39;100162.09;;;-3.99;87.68
46007;BME280;31738;50.188;8.524;2022-12-18T06:37:04;100170.78;;;-3.98;87.94
46007;BME280;31738;50.188;8.524;2022-12-18T06:39:30;100164.88;;;-4.00;87.74
46007;BME280;31738;50.188;8.524;2022-12-18T06:41:55;100168.28;;;-4.00;87.75
46007;BME280;31738;50.188;8.524;2022-12-18T06:44:21;100173.69;;;-4.01;87.52
46007;BME280;31738;50.188;8.524;2022-12-18T06:46:46;100185.16;;;-4.02;87.66
46007;BME280;31738;50.188;8.524;2022-12-18T06:49:12;100178.28;;;-4.03;87.83
46007;BME280;31738;50.188;8.524;2022-12-18T06:51:38;100181.69;;;-4.03;87.89
46007;BME280;31738;50.188;8.524;2022-12-18T06:54:03;100187.47;;;-3.99;87.70
46007;BME280;31738;50.188;8.524;2022-12-18T06:56:29;100194.34;;;-3.98;87.80
46007;BME280;31738;50.188;8.524;2022-12-18T06:58:55;100183.88;;;-3.98;87.91
46007;BME280;31738;50.188;8.524;2022-12-18T07:01:21;100181.94;;;-3.96;87.78
46007;BME280;31738;50.188;8.524;2022-12-18T07:03:47;100183.59;;;-3.95;87.65
46007;BME280;31738;50.188;8.524;2022-12-18T07:06:18;100201.25;;;-3.97;87.43
46007;BME280;31738;50.188;8.524;2022-12-18T07:08:45;100197.50;;;-3.95;87.60
46007;BME280;31738;50.188;8.524;2022-12-18T07:11:10;100200.97;;;-3.94;87.56
46007;BME280;31738;50.188;8.524;2022-12-18T07:13:36;100205.38;;;-3.95;87.96
46007;BME280;31738;50.188;8.524;2022-12-18T07:16:13;100205.22;;;-3.93;87.58
46007;BME280;31738;50.188;8.524;2022-12-18T07:18:39;100199.16;;;-3.94;87.58
46007;BME280;31738;50.188;8.524;2022-12-18T07:21:06;100197.38;;;-3.93;87.77
46007;BME280;31738;50.188;8.524;2022-12-18T07:23:33;100199.00;;;-3.92;87.67
46007;BME280;31738;50.188;8.524;2022-12-18T07:26:07;100197.66;;;-3.96;87.56
46007;BME280;31738;50.188;8.524;2022-12-18T07:28:34;100191.13;;;-4.19;87.72
46007;BME280;31738;50.188;8.524;2022-12-18T07:31:05;100192.78;;;-4.18;87.77
46007;BME280;31738;50.188;8.524;2022-12-18T07:33:32;100187.25;;;-4.15;87.94
46007;BME280;31738;50.188;8.524;2022-12-18T07:36:02;100189.28;;;-4.09;87.44
46007;BME280;31738;50.188;8.524;2022-12-18T07:38:29;100200.16;;;-4.04;87.50
46007;BME280;31738;50.188;8.524;2022-12-18T07:41:00;100199.06;;;-4.02;87.58
46007;BME280;31738;50.188;8.524;2022-12-18T07:43:25;100199.88;;;-4.01;87.35
46007;BME280;31738;50.188;8.524;2022-12-18T07:45:51;100187.75;;;-4.02;87.38
46007;BME280;31738;50.188;8.524;2022-12-18T07:48:16;100193.84;;;-4.02;87.52
46007;BME280;31738;50.188;8.524;2022-12-18T07:50:42;100197.94;;;-3.99;87.79
46007;BME280;31738;50.188;8.524;2022-12-18T07:53:07;100198.78;;;-3.99;87.46
46007;BME280;31738;50.188;8.524;2022-12-18T07:55:33;100208.13;;;-3.96;87.63
46007;BME280;31738;50.188;8.524;2022-12-18T07:58:01;100200.00;;;-3.93;87.42
46007;BME280;31738;50.188;8.524;2022-12-18T08:00:27;100199.41;;;-3.87;87.77
46007;BME280;31738;50.188;8.524;2022-12-18T08:02:53;100188.47;;;-3.83;87.80
46007;BME280;31738;50.188;8.524;2022-12-18T08:05:18;100194.50;;;-3.73;87.75
46007;BME280;31738;50.188;8.524;2022-12-18T08:07:46;100199.69;;;-3.63;87.49
46007;BME280;31738;50.188;8.524;2022-12-18T08:10:11;100190.28;;;-3.56;87.39
46007;BME280;31738;50.188;8.524;2022-12-18T08:12:37;100193.28;;;-3.51;87.61
46007;BME280;31738;50.188;8.524;2022-12-18T08:15:03;100196.25;;;-3.46;87.77
46007;BME280;31738;50.188;8.524;2022-12-18T08:17:29;100189.91;;;-3.43;87.28
46007;BME280;31738;50.188;8.524;2022-12-18T08:19:54;100192.91;;;-3.38;87.42
46007;BME280;31738;50.188;8.524;2022-12-18T08:22:20;100205.25;;;-3.31;87.18
46007;BME280;31738;50.188;8.524;2022-12-18T08:24:45;100195.31;;;-3.27;87.21
46007;BME280;31738;50.188;8.524;2022-12-18T08:27:11;100204.75;;;-3.17;87.12
46007;BME280;31738;50.188;8.524;2022-12-18T08:29:36;100211.38;;;-3.13;86.91
46007;BME280;31738;50.188;8.524;2022-12-18T08:32:02;100190.72;;;-3.08;86.93
46007;BME280;31738;50.188;8.524;2022-12-18T08:34:28;100190.28;;;-3.03;86.67
46007;BME280;31738;50.188;8.524;2022-12-18T08:36:53;100187.19;;;-2.99;86.38
46007;BME280;31738;50.188;8.524;2022-12-18T08:39:19;100188.84;;;-2.98;86.80
46007;BME280;31738;50.188;8.524;2022-12-18T08:41:44;100186.75;;;-2.94;86.71
46007;BME280;31738;50.188;8.524;2022-12-18T08:44:30;100184.78;;;-2.92;86.76
46007;BME280;31738;50.188;8.524;2022-12-18T08:47:07;100173.19;;;-2.90;86.72
46007;BME280;31738;50.188;8.524;2022-12-18T08:49:34;100169.25;;;-2.86;86.84
46007;BME280;31738;50.188;8.524;2022-12-18T08:52:00;100171.59;;;-2.83;86.47
46007;BME280;31738;50.188;8.524;2022-12-18T08:54:26;100166.72;;;-2.78;86.47
46007;BME280;31738;50.188;8.524;2022-12-18T08:56:51;100169.53;;;-2.71;86.80
46007;BME280;31738;50.188;8.524;2022-12-18T08:59:17;100167.13;;;-2.65;86.43
46007;BME280;31738;50.188;8.524;2022-12-18T09:01:57;100173.41;;;-2.58;86.35
46007;BME280;31738;50.188;8.524;2022-12-18T09:04:23;100171.13;;;-2.53;86.34
46007;BME280;31738;50.188;8.524;2022-12-18T09:06:59;100175.75;;;-2.47;86.16
46007;BME280;31738;50.188;8.524;2022-12-18T09:09:32;100175.75;;;-2.47;85.86
46007;BME280;31738;50.188;8.524;2022-12-18T09:11:58;100180.41;;;-2.41;85.98
46007;BME280;31738;50.188;8.524;2022-12-18T09:14:24;100181.75;;;-2.37;85.77
46007;BME280;31738;50.188;8.524;2022-12-18T09:16:59;100182.28;;;-2.33;85.71
46007;BME280;31738;50.188;8.524;2022-12-18T09:19:30;100207.38;;;-2.31;85.76
46007;BME280;31738;50.188;8.524;2022-12-18T09:21:56;100203.47;;;-2.27;85.34
46007;BME280;31738;50.188;8.524;2022-12-18T09:24:21;100201.88;;;-2.20;85.55
46007;BME280;31738;50.188;8.524;2022-12-18T09:26:47;100206.66;;;-2.15;85.52
46007;BME280;31738;50.188;8.524;2022-12-18T09:29:15;100210.28;;;-2.16;84.79
46007;BME280;31738;50.188;8.524;2022-12-18T09:31:45;100209.91;;;-2.21;84.53
46007;BME280;31738;50.188;8.524;2022-12-18T09:34:10;100221.59;;;-2.16;84.61
46007;BME280;31738;50.188;8.524;2022-12-18T09:36:37;100214.38;;;-2.14;84.56
46007;BME280;31738;50.188;8.524;2022-12-18T09:39:02;100226.84;;;-2.16;84.42
46007;BME280;31738;50.188;8.524;2022-12-18T09:41:47;100220.81;;;-2.08;84.22
46007;BME280;31738;50.188;8.524;2022-12-18T09:44:35;100226.75;;;-2.06;83.93
46007;BME280;31738;50.188;8.524;2022-12-18T09:47:14;100226.91;;;-2.08;83.85
46007;BME280;31738;50.188;8.524;2022-12-18T09:49:44;100238.91;;;-2.05;84.03
46007;BME280;31738;50.188;8.524;2022-12-18T09:54:40;100244.06;;;-1.96;83.63
46007;BME280;31738;50.188;8.524;2022-12-18T09:57:19;100249.63;;;-1.99;83.41
46007;BME280;31738;50.188;8.524;2022-12-18T09:59:55;100249.63;;;-1.99;83.51
46007;BME280;31738;50.188;8.524;2022-12-18T10:02:26;100251.56;;;-2.01;83.45
46007;BME280;31738;50.188;8.524;2022-12-18T10:05:16;100257.75;;;-2.10;83.22
46007;BME280;31738;50.188;8.524;2022-12-18T10:08:18;100272.19;;;-2.14;83.48
46007;BME280;31738;50.188;8.524;2022-12-18T10:10:57;100275.00;;;-2.33;83.30
46007;BME280;31738;50.188;8.524;2022-12-18T10:13:42;100265.19;;;-2.31;83.57
46007;BME280;31738;50.188;8.524;2022-12-18T10:16:16;100251.38;;;-2.33;83.25
46007;BME280;31738;50.188;8.524;2022-12-18T10:21:20;100248.19;;;-2.44;82.78
46007;BME280;31738;50.188;8.524;2022-12-18T10:24:26;100242.72;;;-2.51;82.54
46007;BME280;31738;50.188;8.524;2022-12-18T10:26:56;100249.56;;;-2.58;82.59
46007;BME280;31738;50.188;8.524;2022-12-18T10:29:25;100246.56;;;-2.63;82.66
46007;BME280;31738;50.188;8.524;2022-12-18T10:31:51;100248.16;;;-2.70;82.26
46007;BME280;31738;50.188;8.524;2022-12-18T10:34:16;100250.78;;;-2.70;82.50
46007;BME280;31738;50.188;8.524;2022-12-18T10:36:42;100253.41;;;-2.70;82.62
46007;BME280;31738;50.188;8.524;2022-12-18T10:41:40;100262.25;;;-2.71;82.04
46007;BME280;31738;50.188;8.524;2022-12-18T10:44:22;100275.00;;;-2.76;81.53
46007;BME280;31738;50.188;8.524;2022-12-18T10:46:50;100267.94;;;-2.75;81.54
46007;BME280;31738;50.188;8.524;2022-12-18T10:51:49;100267.41;;;-2.79;81.97
46007;BME280;31738;50.188;8.524;2022-12-18T10:54:19;100265.16;;;-2.74;81.68
46007;BME280;31738;50.188;8.524;2022-12-18T10:56:46;100261.84;;;-2.76;81.66
46007;BME280;31738;50.188;8.524;2022-12-18T10:59:15;100260.06;;;-2.75;81.69
46007;BME280;31738;50.188;8.524;2022-12-18T11:04:22;100269.97;;;-2.69;81.48
46007;BME280;31738;50.188;8.524;2022-12-18T11:09:31;100254.22;;;-2.69;81.17
46007;BME280;31738;50.188;8.524;2022-12-18T11:12:16;100253.69;;;-2.73;81.45
46007;BME280;31738;50.188;8.524;2022-12-18T11:14:46;100251.75;;;-2.71;81.17
46007;BME280;31738;50.188;8.524;2022-12-18T11:17:21;100261.41;;;-2.71;81.23
46007;BME280;31738;50.188;8.524;2022-12-18T11:19:58;100267.78;;;-2.74;81.30
46007;BME280;31738;50.188;8.524;2022-12-18T11:22:30;100264.19;;;-2.73;80.96
46007;BME280;31738;50.188;8.524;2022-12-18T11:24:59;100249.13;;;-2.71;81.39
46007;BME280;31738;50.188;8.524;2022-12-18T11:27:27;100248.28;;;-2.71;81.35
46007;BME280;31738;50.188;8.524;2022-12-18T11:30:13;100256.69;;;-2.68;81.05
46007;BME280;31738;50.188;8.524;2022-12-18T11:32:48;100257.69;;;-2.69;81.31
46007;BME280;31738;50.188;8.524;2022-12-18T11:40:44;100247.63;;;-2.73;80.98
46007;BME280;31738;50.188;8.524;2022-12-18T11:43:26;100254.91;;;-2.85;80.02
46007;BME280;31738;50.188;8.524;2022-12-18T11:45:56;100251.31;;;-2.84;81.32
46007;BME280;31738;50.188;8.524;2022-12-18T11:48:34;100253.47;;;-2.97;81.07
46007;BME280;31738;50.188;8.524;2022-12-18T11:51:04;100246.97;;;-2.93;81.32
46007;BME280;31738;50.188;8.524;2022-12-18T11:53:33;100235.88;;;-2.87;81.43
46007;BME280;31738;50.188;8.524;2022-12-18T11:56:26;100242.47;;;-2.83;81.29
46007;BME280;31738;50.188;8.524;2022-12-18T11:59:39;100248.44;;;-3.08;79.38
46007;BME280;31738;50.188;8.524;2022-12-18T12:02:42;100242.28;;;-2.99;81.65
46007;BME280;31738;50.188;8.524;2022-12-18T12:09:00;100243.91;;;-2.88;81.34
46007;BME280;31738;50.188;8.524;2022-12-18T12:11:33;100242.81;;;-2.95;81.43
46007;BME280;31738;50.188;8.524;2022-12-18T12:19:53;100243.97;;;-2.98;80.88
46007;BME280;31738;50.188;8.524;2022-12-18T12:22:51;100245.06;;;-3.00;81.14
46007;BME280;31738;50.188;8.524;2022-12-18T12:25:48;100253.94;;;-3.01;81.02
46007;BME280;31738;50.188;8.524;2022-12-18T12:28:33;100247.84;;;-3.02;81.17
46007;BME280;31738;50.188;8.524;2022-12-18T12:33:39;100230.38;;;-3.11;81.26
46007;BME280;31738;50.188;8.524;2022-12-18T12:36:14;100227.47;;;-3.08;81.43
46007;BME280;31738;50.188;8.524;2022-12-18T12:38:42;100230.38;;;-3.28;81.76
46007;BME280;31738;50.188;8.524;2022-12-18T12:41:13;100222.31;;;-3.17;81.52
46007;BME280;31738;50.188;8.524;2022-12-18T12:44:02;100224.63;;;-3.14;81.52
46007;BME280;31738;50.188;8.524;2022-12-18T12:46:31;100208.28;;;-3.08;81.35
46007;BME280;31738;50.188;8.524;2022-12-18T12:49:02;100211.09;;;-3.02;81.34
46007;BME280;31738;50.188;8.524;2022-12-18T12:51:38;100209.69;;;-2.96;81.20
46007;BME280;31738;50.188;8.524;2022-12-18T12:54:14;100221.41;;;-3.08;80.27
46007;BME280;31738;50.188;8.524;2022-12-18T13:02:20;100217.78;;;-3.25;81.39
46007;BME280;31738;50.188;8.524;2022-12-18T13:07:28;100201.47;;;-3.19;82.26
46007;BME280;31738;50.188;8.524;2022-12-18T13:10:20;100202.66;;;-3.13;82.14
46007;BME280;31738;50.188;8.524;2022-12-18T13:15:36;100195.81;;;-3.06;82.02
46007;BME280;31738;50.188;8.524;2022-12-18T13:21:01;100197.03;;;-3.01;82.07
46007;BME280;31738;50.188;8.524;2022-12-18T13:23:38;100190.34;;;-2.95;81.89
46007;BME280;31738;50.188;8.524;2022-12-18T13:31:00;100196.03;;;-2.82;81.34
46007;BME280;31738;50.188;8.524;2022-12-18T13:38:38;100173.06;;;-2.80;81.78
46007;BME280;31738;50.188;8.524;2022-12-18T13:41:22;100180.16;;;-2.81;81.87
46007;BME280;31738;50.188;8.524;2022-12-18T13:43:50;100165.03;;;-2.79;81.77
46007;BME280;31738;50.188;8.524;2022-12-18T13:46:26;100163.78;;;-2.75;81.90
46007;BME280;31738;50.188;8.524;2022-12-18T13:51:23;100161.47;;;-2.78;82.20
46007;BME280;31738;50.188;8.524;2022-12-18T13:53:55;100159.78;;;-2.79;82.10
46007;BME280;31738;50.188;8.524;2022-12-18T13:56:24;100159.28;;;-2.82;81.88
46007;BME280;31738;50.188;8.524;2022-12-18T14:01:56;100161.03;;;-2.91;82.42
46007;BME280;31738;50.188;8.524;2022-12-18T14:04:33;100151.19;;;-2.89;82.70
46007;BME280;31738;50.188;8.524;2022-12-18T14:07:05;100147.66;;;-2.80;82.63
46007;BME280;31738;50.188;8.524;2022-12-18T14:09:37;100155.91;;;-2.75;82.51
46007;BME280;31738;50.188;8.524;2022-12-18T14:12:15;100156.66;;;-2.82;82.48
46007;BME280;31738;50.188;8.524;2022-12-18T14:15:00;100154.53;;;-2.79;82.62
46007;BME280;31738;50.188;8.524;2022-12-18T14:17:26;100154.75;;;-2.72;82.41
46007;BME280;31738;50.188;8.524;2022-12-18T14:19:51;100156.28;;;-2.70;82.43
46007;BME280;31738;50.188;8.524;2022-12-18T14:22:27;100158.22;;;-2.72;82.36
46007;BME280;31738;50.188;8.524;2022-12-18T14:25:27;100160.31;;;-2.75;82.54
46007;BME280;31738;50.188;8.524;2022-12-18T14:30:35;100164.44;;;-2.73;82.71